Time;durP1;ratioP1;P1;durP2;ratioP2;P2;SDS_P1;SDS_P2;PMS_P1;PMS_P2;Temp;Humidity;BMP_temperature;BMP_pressure;BME280_temperature;BME280_humidity;BME280_pressure;Samples;Min_cycle;Max_cycle;Signal;HPM_P1;HPM_P2
2022/07/15 00:01:44;;;;;;;;;;;27.20;44.30;;;;;;4998775;28;20396;-63
2022/07/15 00:04:10;;;;;;;;;;;27.20;44.30;;;;;;4998516;28;19917;-65
2022/07/15 00:06:35;;;;;;;;;;;27.20;44.30;;;;;;4997507;28;20259;-67
2022/07/15 00:09:01;;;;;;;;;;;27.20;44.30;;;;;;5000681;28;19921;-67
2022/07/15 00:11:26;;;;;;;;;;;27.20;44.40;;;;;;5000299;28;19916;-66
2022/07/15 00:13:52;;;;;;;;;;;27.20;44.40;;;;;;4997559;28;19929;-65
2022/07/15 00:16:18;;;;;;;;;;;27.20;44.40;;;;;;4999994;28;19960;-66
2022/07/15 00:18:43;;;;;;;;;;;27.20;44.40;;;;;;4998059;28;20387;-67
2022/07/15 00:21:09;;;;;;;;;;;27.20;44.40;;;;;;4997994;28;20289;-68
2022/07/15 00:23:35;;;;;;;;;;;27.20;44.40;;;;;;4995730;28;19925;-67
2022/07/15 00:26:00;;;;;;;;;;;27.20;44.40;;;;;;4999432;28;19909;-64
2022/07/15 00:28:28;;;;;;;;;;;27.20;44.40;;;;;;4997534;28;20221;-67
2022/07/15 00:30:54;;;;;;;;;;;27.20;44.40;;;;;;4997982;28;20160;-65
2022/07/15 00:33:20;;;;;;;;;;;27.20;44.40;;;;;;4997358;28;20012;-65
2022/07/15 00:35:45;;;;;;;;;;;27.20;44.40;;;;;;5000395;28;20562;-66
2022/07/15 00:38:11;;;;;;;;;;;27.20;44.40;;;;;;4997186;28;20164;-66
2022/07/15 00:40:40;;;;;;;;;;;27.20;44.40;;;;;;4997893;28;20000;-62
2022/07/15 00:43:06;;;;;;;;;;;27.20;44.40;;;;;;4997239;28;19931;-64
2022/07/15 00:45:31;;;;;;;;;;;27.10;44.40;;;;;;4998200;28;19916;-66
2022/07/15 00:47:57;;;;;;;;;;;27.10;44.40;;;;;;4999493;28;20014;-66
2022/07/15 00:50:27;;;;;;;;;;;27.10;44.50;;;;;;4998012;28;19952;-64
2022/07/15 00:53:13;;;;;;;;;;;27.10;44.50;;;;;;4994866;28;19992;-66
2022/07/15 00:55:43;;;;;;;;;;;27.10;44.50;;;;;;4997214;28;19906;-64
2022/07/15 00:58:11;;;;;;;;;;;27.10;44.50;;;;;;4998598;28;19909;-65
2022/07/15 01:00:36;;;;;;;;;;;27.10;44.50;;;;;;4999583;28;20313;-63
2022/07/15 01:03:02;;;;;;;;;;;27.10;44.50;;;;;;4996019;28;19913;-65
2022/07/15 01:05:28;;;;;;;;;;;27.10;44.50;;;;;;4998268;28;19936;-68
2022/07/15 01:07:54;;;;;;;;;;;27.10;44.50;;;;;;4995966;28;20322;-64
2022/07/15 01:10:20;;;;;;;;;;;27.10;44.50;;;;;;4997726;28;19928;-65
2022/07/15 01:12:46;;;;;;;;;;;27.10;44.60;;;;;;4998243;28;19909;-63
2022/07/15 01:15:12;;;;;;;;;;;27.10;44.60;;;;;;4997580;28;19909;-65
2022/07/15 01:17:38;;;;;;;;;;;27.10;44.60;;;;;;4999742;28;20408;-66
2022/07/15 01:20:05;;;;;;;;;;;27.10;44.60;;;;;;4997336;28;19937;-66
2022/07/15 01:22:30;;;;;;;;;;;27.10;44.60;;;;;;4995828;28;20293;-66
2022/07/15 01:24:56;;;;;;;;;;;27.00;44.60;;;;;;4997166;28;19962;-65
2022/07/15 01:27:21;;;;;;;;;;;27.00;44.50;;;;;;4997627;28;19917;-66
2022/07/15 01:29:47;;;;;;;;;;;27.00;44.50;;;;;;4998809;28;20199;-61
2022/07/15 01:32:13;;;;;;;;;;;27.00;44.50;;;;;;4996636;28;19917;-65
2022/07/15 01:34:38;;;;;;;;;;;27.10;44.60;;;;;;4999225;28;19920;-65
2022/07/15 01:37:04;;;;;;;;;;;27.00;44.50;;;;;;4995894;28;19909;-65
2022/07/15 01:39:30;;;;;;;;;;;27.00;44.50;;;;;;4997723;28;19917;-63
2022/07/15 01:41:55;;;;;;;;;;;27.00;44.50;;;;;;4996820;28;19995;-65
2022/07/15 01:44:21;;;;;;;;;;;27.00;44.50;;;;;;5013408;28;19935;-63
2022/07/15 01:46:46;;;;;;;;;;;27.00;44.50;;;;;;4998369;28;20365;-65
2022/07/15 01:49:29;;;;;;;;;;;27.00;44.50;;;;;;4996960;28;19963;-65
2022/07/15 01:51:56;;;;;;;;;;;27.00;44.50;;;;;;4995908;28;19913;-66
2022/07/15 01:54:22;;;;;;;;;;;27.00;44.50;;;;;;4998128;28;19914;-65
2022/07/15 01:56:51;;;;;;;;;;;27.00;44.50;;;;;;4997620;28;19956;-62
2022/07/15 01:59:17;;;;;;;;;;;27.00;44.50;;;;;;4998338;28;20036;-66
2022/07/15 02:01:43;;;;;;;;;;;27.00;44.50;;;;;;4995943;28;20449;-65
2022/07/15 02:04:08;;;;;;;;;;;27.00;44.50;;;;;;4995981;28;19956;-64
2022/07/15 02:06:34;;;;;;;;;;;27.00;44.60;;;;;;4994783;28;19991;-66
2022/07/15 02:09:00;;;;;;;;;;;27.00;44.50;;;;;;4997874;28;20362;-61
2022/07/15 02:11:25;;;;;;;;;;;27.00;44.50;;;;;;4997451;28;19905;-64
2022/07/15 02:13:53;;;;;;;;;;;27.00;44.50;;;;;;4994791;28;21212;-62
2022/07/15 02:16:19;;;;;;;;;;;27.00;44.50;;;;;;4999287;28;20374;-66
2022/07/15 02:18:44;;;;;;;;;;;27.00;44.50;;;;;;4996164;28;19968;-66
2022/07/15 02:21:10;;;;;;;;;;;26.90;44.40;;;;;;4996326;28;20336;-64
2022/07/15 02:23:35;;;;;;;;;;;26.90;44.40;;;;;;4994653;28;20243;-61
2022/07/15 02:26:01;;;;;;;;;;;26.90;44.40;;;;;;4997296;28;19913;-63
2022/07/15 02:28:26;;;;;;;;;;;26.90;44.40;;;;;;4996748;28;20936;-63
2022/07/15 02:30:52;;;;;;;;;;;26.90;44.40;;;;;;4997799;28;19963;-62
2022/07/15 02:33:17;;;;;;;;;;;27.00;44.50;;;;;;4996310;28;19924;-63
2022/07/15 02:35:43;;;;;;;;;;;26.90;44.50;;;;;;4997440;28;19917;-64
2022/07/15 02:38:08;;;;;;;;;;;26.90;44.50;;;;;;4995205;28;20231;-66
2022/07/15 02:40:34;;;;;;;;;;;26.90;44.50;;;;;;4997489;28;20265;-62
2022/07/15 02:43:00;;;;;;;;;;;26.90;44.50;;;;;;4996283;28;19909;-65
2022/07/15 02:45:28;;;;;;;;;;;26.90;44.50;;;;;;4996527;28;19940;-64
2022/07/15 02:47:53;;;;;;;;;;;26.90;44.60;;;;;;4996702;28;20001;-64
2022/07/15 02:50:19;;;;;;;;;;;26.90;44.50;;;;;;4997113;28;19992;-68
2022/07/15 02:52:45;;;;;;;;;;;26.90;44.50;;;;;;4993280;28;20024;-67
2022/07/15 02:55:11;;;;;;;;;;;26.90;44.50;;;;;;4996409;28;19924;-64
2022/07/15 02:57:37;;;;;;;;;;;26.90;44.50;;;;;;4996932;28;20505;-67
2022/07/15 03:00:05;;;;;;;;;;;26.90;44.50;;;;;;4996872;28;20017;-66
2022/07/15 03:02:31;;;;;;;;;;;26.80;45.00;;;;;;4996051;28;20361;-63
2022/07/15 03:04:56;;;;;;;;;;;26.80;44.50;;;;;;4993521;28;19921;-67
2022/07/15 03:07:22;;;;;;;;;;;26.80;44.40;;;;;;4995747;28;19916;-65
2022/07/15 03:09:47;;;;;;;;;;;26.80;44.50;;;;;;4996325;28;19913;-63
2022/07/15 03:12:13;;;;;;;;;;;26.80;44.40;;;;;;4996076;28;20019;-63
2022/07/15 03:14:40;;;;;;;;;;;26.80;44.50;;;;;;4996584;28;19910;-66
2022/07/15 03:17:05;;;;;;;;;;;26.80;44.50;;;;;;4996961;28;19967;-66
2022/07/15 03:19:31;;;;;;;;;;;26.80;44.40;;;;;;4997344;28;20399;-64
2022/07/15 03:21:57;;;;;;;;;;;26.80;44.50;;;;;;4994755;28;19912;-66
2022/07/15 03:24:22;;;;;;;;;;;26.80;44.50;;;;;;4997663;28;19979;-64
2022/07/15 03:26:47;;;;;;;;;;;26.80;44.50;;;;;;4996069;28;20286;-65
2022/07/15 03:29:15;;;;;;;;;;;26.80;44.50;;;;;;4995758;28;20004;-65
2022/07/15 03:31:41;;;;;;;;;;;26.80;42.40;;;;;;5009496;28;20052;-66
2022/07/15 03:34:06;;;;;;;;;;;26.80;40.40;;;;;;4999199;28;19913;-64
2022/07/15 03:36:32;;;;;;;;;;;26.70;39.00;;;;;;4999502;28;20222;-64
2022/07/15 03:38:57;;;;;;;;;;;26.70;38.00;;;;;;5000187;28;19913;-67
2022/07/15 03:41:23;;;;;;;;;;;26.60;38.20;;;;;;5001436;28;19983;-65
2022/07/15 03:43:48;;;;;;;;;;;26.60;37.90;;;;;;4998724;28;19928;-62
2022/07/15 03:46:15;;;;;;;;;;;26.60;37.20;;;;;;5000621;28;19909;-65
2022/07/15 03:48:40;;;;;;;;;;;26.50;36.50;;;;;;4998972;28;19916;-64
2022/07/15 03:51:06;;;;;;;;;;;26.40;37.20;;;;;;4999243;28;20366;-65
2022/07/15 03:53:32;;;;;;;;;;;26.40;36.90;;;;;;4996990;28;19980;-67
2022/07/15 03:55:57;;;;;;;;;;;26.40;36.90;;;;;;5000262;28;20479;-66
2022/07/15 03:58:23;;;;;;;;;;;26.30;36.80;;;;;;4998417;28;19913;-65
2022/07/15 04:00:48;;;;;;;;;;;26.30;36.80;;;;;;4999828;28;20370;-64
2022/07/15 04:03:14;;;;;;;;;;;26.20;36.60;;;;;;4997668;28;19913;-65
2022/07/15 04:05:39;;;;;;;;;;;26.20;36.30;;;;;;4999731;28;20397;-66
2022/07/15 04:08:05;;;;;;;;;;;26.10;37.20;;;;;;4997676;28;19913;-63
2022/07/15 04:10:31;;;;;;;;;;;26.10;36.60;;;;;;4998806;28;19921;-66
2022/07/15 04:12:57;;;;;;;;;;;26.00;36.60;;;;;;4998144;28;19939;-64
2022/07/15 04:15:23;;;;;;;;;;;26.00;36.70;;;;;;4996917;28;20785;-65
2022/07/15 04:17:48;;;;;;;;;;;26.00;37.00;;;;;;4999869;28;20879;-66
2022/07/15 04:20:13;;;;;;;;;;;26.00;37.10;;;;;;5013497;28;19949;-66
2022/07/15 04:22:40;;;;;;;;;;;25.90;37.20;;;;;;4997283;28;19928;-66
2022/07/15 04:25:07;;;;;;;;;;;25.90;37.20;;;;;;5000116;28;19932;-66
2022/07/15 04:27:32;;;;;;;;;;;25.80;37.30;;;;;;4997335;28;19933;-65
2022/07/15 04:29:57;;;;;;;;;;;25.80;37.50;;;;;;5016116;28;19914;-63
2022/07/15 04:32:23;;;;;;;;;;;25.80;37.40;;;;;;4998879;28;20020;-66
2022/07/15 04:34:48;;;;;;;;;;;25.80;37.40;;;;;;4998149;28;20882;-65
2022/07/15 04:37:14;;;;;;;;;;;25.80;37.30;;;;;;4998105;28;19917;-66
2022/07/15 04:39:39;;;;;;;;;;;25.70;37.00;;;;;;4998574;28;19909;-64
2022/07/15 04:42:05;;;;;;;;;;;25.70;37.40;;;;;;4998141;28;19913;-64
2022/07/15 04:44:30;;;;;;;;;;;25.70;37.50;;;;;;4999012;28;19920;-66
2022/07/15 04:46:56;;;;;;;;;;;25.70;38.10;;;;;;4998781;28;19917;-66
2022/07/15 04:52:06;;;;;;;;;;;25.60;37.60;;;;;;4996488;28;20012;-65
2022/07/15 04:54:31;;;;;;;;;;;25.60;37.90;;;;;;4999311;28;20031;-66
2022/07/15 04:56:56;;;;;;;;;;;25.60;37.80;;;;;;4998096;28;19987;-66
2022/07/15 04:59:22;;;;;;;;;;;25.50;37.70;;;;;;5000234;28;20383;-66
2022/07/15 05:01:47;;;;;;;;;;;25.50;37.80;;;;;;4996415;28;20293;-66
2022/07/15 05:04:13;;;;;;;;;;;25.50;38.00;;;;;;4997469;28;20052;-64
2022/07/15 05:06:38;;;;;;;;;;;25.40;38.30;;;;;;4994175;28;19920;-64
2022/07/15 05:09:04;;;;;;;;;;;25.40;38.30;;;;;;4999247;28;19916;-66
2022/07/15 05:11:29;;;;;;;;;;;25.40;38.30;;;;;;4996986;28;19939;-65
2022/07/15 05:13:55;;;;;;;;;;;25.40;38.20;;;;;;4998080;28;19971;-66
2022/07/15 05:16:20;;;;;;;;;;;25.30;38.40;;;;;;5001339;28;19913;-63
2022/07/15 05:18:46;;;;;;;;;;;25.30;38.50;;;;;;4997921;28;20392;-66
2022/07/15 05:21:11;;;;;;;;;;;25.30;38.70;;;;;;4997130;28;19925;-63
2022/07/15 05:23:37;;;;;;;;;;;25.30;39.00;;;;;;5008652;28;19925;-64
2022/07/15 05:26:02;;;;;;;;;;;25.30;38.90;;;;;;4998128;28;19978;-65
2022/07/15 05:28:28;;;;;;;;;;;25.30;39.30;;;;;;4997232;28;19975;-64
2022/07/15 05:30:53;;;;;;;;;;;25.30;39.70;;;;;;4998670;28;19967;-65
2022/07/15 05:33:19;;;;;;;;;;;25.30;39.50;;;;;;4996586;28;19909;-65
2022/07/15 05:35:44;;;;;;;;;;;25.40;39.70;;;;;;4997568;28;20004;-62
2022/07/15 05:38:11;;;;;;;;;;;25.40;39.70;;;;;;4997554;28;19916;-65
2022/07/15 05:40:36;;;;;;;;;;;25.40;39.80;;;;;;4998930;28;19996;-64
2022/07/15 05:43:02;;;;;;;;;;;25.40;39.90;;;;;;4997235;28;20031;-65
2022/07/15 05:45:27;;;;;;;;;;;25.50;40.00;;;;;;4998651;28;19924;-66
2022/07/15 05:47:53;;;;;;;;;;;25.50;39.90;;;;;;4998184;28;20003;-66
2022/07/15 05:50:19;;;;;;;;;;;25.50;40.00;;;;;;4999100;28;19967;-63
2022/07/15 05:52:44;;;;;;;;;;;25.60;40.10;;;;;;4995633;28;20518;-65
2022/07/15 05:55:10;;;;;;;;;;;25.60;40.10;;;;;;4998851;28;19920;-64
2022/07/15 05:57:36;;;;;;;;;;;25.60;40.10;;;;;;4997206;28;19905;-65
2022/07/15 06:00:02;;;;;;;;;;;25.60;40.10;;;;;;4997239;28;19921;-65
2022/07/15 06:02:28;;;;;;;;;;;25.60;40.10;;;;;;4996112;28;19935;-65
2022/07/15 06:04:54;;;;;;;;;;;25.70;40.20;;;;;;4997581;28;19978;-64
2022/07/15 06:07:19;;;;;;;;;;;25.70;40.20;;;;;;4995824;28;19929;-67
2022/07/15 06:09:46;;;;;;;;;;;25.70;40.20;;;;;;4995419;28;19924;-65
2022/07/15 06:12:11;;;;;;;;;;;25.70;40.20;;;;;;4996565;28;19910;-63
2022/07/15 06:14:37;;;;;;;;;;;25.70;40.30;;;;;;4998582;28;20332;-64
2022/07/15 06:17:02;;;;;;;;;;;25.80;40.50;;;;;;4997386;28;19919;-65
2022/07/15 06:19:28;;;;;;;;;;;25.80;40.50;;;;;;4998051;28;19951;-64
2022/07/15 06:21:53;;;;;;;;;;;25.90;40.60;;;;;;4995223;28;20273;-66
2022/07/15 06:24:20;;;;;;;;;;;25.90;40.50;;;;;;4998423;28;19947;-66
2022/07/15 06:26:45;;;;;;;;;;;25.90;40.50;;;;;;4996828;28;20083;-65
2022/07/15 06:29:11;;;;;;;;;;;25.90;40.50;;;;;;4998178;28;20035;-64
2022/07/15 06:31:36;;;;;;;;;;;26.00;40.60;;;;;;4996389;28;20296;-66
2022/07/15 06:34:02;;;;;;;;;;;26.00;40.60;;;;;;4996174;28;19913;-66
2022/07/15 06:36:27;;;;;;;;;;;26.00;40.50;;;;;;4996162;28;20087;-66
2022/07/15 06:38:54;;;;;;;;;;;26.10;40.60;;;;;;4996951;28;20440;-64
2022/07/15 06:41:19;;;;;;;;;;;26.10;40.60;;;;;;4997737;28;19914;-64
2022/07/15 06:43:45;;;;;;;;;;;26.10;40.60;;;;;;4995504;28;20646;-64
2022/07/15 06:46:11;;;;;;;;;;;26.10;40.60;;;;;;4997743;28;19909;-64
2022/07/15 06:48:38;;;;;;;;;;;26.10;40.50;;;;;;4995198;28;19917;-64
2022/07/15 06:51:04;;;;;;;;;;;26.20;40.70;;;;;;4996218;28;19913;-64
2022/07/15 06:53:29;;;;;;;;;;;26.20;40.60;;;;;;4994350;28;19924;-67
2022/07/15 06:55:55;;;;;;;;;;;26.20;40.60;;;;;;4999333;28;19957;-65
2022/07/15 06:58:21;;;;;;;;;;;26.20;40.60;;;;;;4997239;28;19913;-65
2022/07/15 07:00:47;;;;;;;;;;;26.20;40.60;;;;;;4997224;28;20393;-66
2022/07/15 07:03:12;;;;;;;;;;;26.20;40.60;;;;;;4994152;28;19944;-66
2022/07/15 07:05:38;;;;;;;;;;;26.20;40.60;;;;;;5000914;28;20448;-65
2022/07/15 07:08:03;;;;;;;;;;;26.20;40.60;;;;;;4998528;28;20012;-66
2022/07/15 07:10:29;;;;;;;;;;;26.20;40.70;;;;;;5001199;28;19909;-66
2022/07/15 07:12:54;;;;;;;;;;;26.20;40.70;;;;;;5000884;28;20263;-62
2022/07/15 07:15:23;;;;;;;;;;;26.20;40.70;;;;;;5002103;28;19952;-66
2022/07/15 07:17:50;;;;;;;;;;;26.20;40.80;;;;;;5002174;28;19913;-65
2022/07/15 07:20:15;;;;;;;;;;;26.20;40.80;;;;;;5000435;28;19917;-65
2022/07/15 07:22:41;;;;;;;;;;;26.20;40.80;;;;;;4998362;28;19932;-65
2022/07/15 07:25:07;;;;;;;;;;;26.20;40.80;;;;;;4999744;28;20041;-64
2022/07/15 07:27:32;;;;;;;;;;;26.20;40.90;;;;;;5000083;28;19931;-62
2022/07/15 07:29:58;;;;;;;;;;;26.20;40.90;;;;;;5001157;28;20003;-64
2022/07/15 07:32:23;;;;;;;;;;;26.20;40.90;;;;;;4999975;28;20322;-66
2022/07/15 07:34:49;;;;;;;;;;;26.20;41.00;;;;;;5001846;28;19913;-63
2022/07/15 07:37:14;;;;;;;;;;;26.20;41.00;;;;;;4998399;28;19909;-64
2022/07/15 07:39:40;;;;;;;;;;;26.20;41.00;;;;;;4999562;28;19913;-66
2022/07/15 07:42:06;;;;;;;;;;;26.20;41.00;;;;;;4998072;28;20361;-66
2022/07/15 07:44:31;;;;;;;;;;;26.20;41.00;;;;;;5000820;28;19999;-64
2022/07/15 07:46:57;;;;;;;;;;;26.20;41.10;;;;;;5001704;28;20179;-64
2022/07/15 07:49:22;;;;;;;;;;;26.20;41.10;;;;;;5001779;28;20316;-66
2022/07/15 07:51:48;;;;;;;;;;;26.20;41.10;;;;;;4998460;28;19913;-65
2022/07/15 07:54:13;;;;;;;;;;;26.20;41.10;;;;;;5000159;28;19921;-64
2022/07/15 07:56:38;;;;;;;;;;;26.20;41.20;;;;;;4999990;28;19909;-65
2022/07/15 07:59:04;;;;;;;;;;;26.20;41.10;;;;;;4999530;28;20372;-64
2022/07/15 08:01:29;;;;;;;;;;;26.20;41.20;;;;;;4997906;28;20066;-66
2022/07/15 08:03:55;;;;;;;;;;;26.20;41.20;;;;;;4999943;28;19939;-63
2022/07/15 08:06:22;;;;;;;;;;;26.20;41.20;;;;;;4999819;28;19924;-64
2022/07/15 08:08:48;;;;;;;;;;;26.20;41.30;;;;;;4997451;28;19914;-65
2022/07/15 08:11:14;;;;;;;;;;;26.20;41.30;;;;;;5015046;28;19920;-64
2022/07/15 08:13:39;;;;;;;;;;;26.20;41.30;;;;;;4999508;28;19910;-65
2022/07/15 08:16:06;;;;;;;;;;;26.20;41.30;;;;;;4999071;28;19913;-64
2022/07/15 08:18:31;;;;;;;;;;;26.20;41.30;;;;;;5000968;28;20154;-63
2022/07/15 08:20:57;;;;;;;;;;;26.20;41.40;;;;;;4997788;28;20004;-64
2022/07/15 08:23:23;;;;;;;;;;;26.20;41.40;;;;;;4998706;28;20400;-66
2022/07/15 08:25:49;;;;;;;;;;;26.20;41.50;;;;;;5003313;28;20342;-66
2022/07/15 08:28:15;;;;;;;;;;;26.20;41.60;;;;;;5000438;28;20000;-64
2022/07/15 08:30:41;;;;;;;;;;;26.20;41.60;;;;;;5000782;28;20005;-64
2022/07/15 08:33:06;;;;;;;;;;;26.30;41.70;;;;;;4999182;28;19917;-62
2022/07/15 08:35:32;;;;;;;;;;;26.30;41.60;;;;;;5002455;28;20692;-62
2022/07/15 08:37:58;;;;;;;;;;;26.30;41.60;;;;;;4996751;28;24287;-65
2022/07/15 08:40:24;;;;;;;;;;;26.30;41.60;;;;;;5014921;28;20436;-64
2022/07/15 08:42:49;;;;;;;;;;;26.40;41.70;;;;;;4998825;28;20401;-64
2022/07/15 08:45:16;;;;;;;;;;;26.40;41.70;;;;;;5000992;28;20005;-66
2022/07/15 08:47:43;;;;;;;;;;;26.40;41.70;;;;;;4998285;28;19927;-65
2022/07/15 08:50:09;;;;;;;;;;;26.40;41.70;;;;;;4998775;28;19956;-65
2022/07/15 08:52:36;;;;;;;;;;;26.40;41.70;;;;;;4997291;28;19996;-63
2022/07/15 08:55:01;;;;;;;;;;;26.50;41.80;;;;;;5000042;28;19909;-65
2022/07/15 08:57:28;;;;;;;;;;;26.50;41.80;;;;;;5002633;28;19974;-68
2022/07/15 08:59:54;;;;;;;;;;;26.50;41.80;;;;;;5000862;28;20377;-64
2022/07/15 09:02:19;;;;;;;;;;;26.50;41.80;;;;;;4997824;28;20027;-64
2022/07/15 09:05:04;;;;;;;;;;;26.60;41.90;;;;;;4999700;28;19920;-65
2022/07/15 09:07:30;;;;;;;;;;;26.60;41.90;;;;;;4996457;28;20003;-63
2022/07/15 09:09:55;;;;;;;;;;;26.60;42.10;;;;;;4996552;28;19913;-65
2022/07/15 09:12:21;;;;;;;;;;;26.60;42.00;;;;;;4999052;28;19971;-65
2022/07/15 09:14:46;;;;;;;;;;;26.60;42.00;;;;;;4997875;28;19924;-62
2022/07/15 09:17:12;;;;;;;;;;;26.70;42.00;;;;;;4999028;28;19987;-65
2022/07/15 09:19:57;;;;;;;;;;;26.70;41.90;;;;;;4998864;28;19913;-65
2022/07/15 09:22:22;;;;;;;;;;;26.70;41.90;;;;;;4999446;28;20004;-64
2022/07/15 09:25:07;;;;;;;;;;;26.70;41.90;;;;;;4998286;28;19956;-66
2022/07/15 09:27:37;;;;;;;;;;;26.80;42.00;;;;;;4997993;28;20230;-64
2022/07/15 09:36:03;;;;;;;;;;;26.80;42.10;;;;;;4999241;28;19962;-64
2022/07/15 09:38:30;;;;;;;;;;;26.80;42.20;;;;;;4996593;28;20285;-66
2022/07/15 09:40:55;;;;;;;;;;;26.80;42.20;;;;;;5000987;28;19910;-64
2022/07/15 09:43:21;;;;;;;;;;;26.90;42.30;;;;;;4996266;28;19967;-63
2022/07/15 09:45:46;;;;;;;;;;;26.90;42.20;;;;;;4999089;28;19913;-67
2022/07/15 09:48:15;;;;;;;;;;;26.90;42.70;;;;;;4999599;28;19914;-65
2022/07/15 09:50:40;;;;;;;;;;;27.00;42.20;;;;;;4998852;28;19948;-62
2022/07/15 09:53:13;;;;;;;;;;;27.00;42.20;;;;;;4997190;28;20032;-64
2022/07/15 09:55:39;;;;;;;;;;;27.00;42.20;;;;;;4999329;28;19920;-64
2022/07/15 09:58:05;;;;;;;;;;;27.00;42.20;;;;;;4998021;28;19944;-66
2022/07/15 10:00:31;;;;;;;;;;;27.00;42.30;;;;;;4996746;28;19943;-64
2022/07/15 10:02:57;;;;;;;;;;;27.00;42.40;;;;;;4997905;28;19959;-65
2022/07/15 10:05:23;;;;;;;;;;;27.00;42.20;;;;;;4993278;28;19921;-67
2022/07/15 10:07:50;;;;;;;;;;;27.00;42.20;;;;;;5003907;28;20415;-64
2022/07/15 10:10:16;;;;;;;;;;;27.00;42.50;;;;;;4995538;28;19944;-66
2022/07/15 10:13:00;;;;;;;;;;;27.00;42.60;;;;;;4995528;28;20628;-65
2022/07/15 10:15:44;;;;;;;;;;;27.10;42.50;;;;;;4997960;28;20037;-63
2022/07/15 10:18:09;;;;;;;;;;;27.10;42.40;;;;;;4997406;28;19913;-65
2022/07/15 10:20:37;;;;;;;;;;;27.10;42.60;;;;;;4997212;28;19925;-66
2022/07/15 10:23:02;;;;;;;;;;;27.10;42.60;;;;;;4994967;28;20369;-66
2022/07/15 10:25:39;;;;;;;;;;;27.10;42.70;;;;;;4997439;28;19929;-65
2022/07/15 10:28:04;;;;;;;;;;;27.10;42.60;;;;;;4998661;28;19920;-66
2022/07/15 10:30:30;;;;;;;;;;;27.20;42.60;;;;;;4996453;28;19948;-60
2022/07/15 10:33:05;;;;;;;;;;;27.20;42.50;;;;;;4996281;28;19916;-60
2022/07/15 10:35:38;;;;;;;;;;;27.20;42.50;;;;;;4998377;28;19971;-60
2022/07/15 10:38:22;;;;;;;;;;;27.20;42.40;;;;;;5007765;28;20410;-62
2022/07/15 10:40:57;;;;;;;;;;;27.30;42.50;;;;;;5001545;28;20690;-63
2022/07/15 10:43:37;;;;;;;;;;;27.20;42.70;;;;;;5002058;28;20404;-66
2022/07/15 10:46:03;;;;;;;;;;;27.30;42.80;;;;;;5001812;28;20372;-64
2022/07/15 10:48:30;;;;;;;;;;;27.30;42.70;;;;;;5001263;28;20393;-65
2022/07/15 10:50:55;;;;;;;;;;;27.30;42.70;;;;;;5001960;28;19917;-64
2022/07/15 10:53:22;;;;;;;;;;;27.30;42.60;;;;;;4998540;28;20598;-62
2022/07/15 10:55:48;;;;;;;;;;;27.30;42.60;;;;;;5005136;28;19940;-63
2022/07/15 10:58:16;;;;;;;;;;;27.30;43.10;;;;;;4999321;28;19917;-64
2022/07/15 11:00:43;;;;;;;;;;;27.40;42.60;;;;;;5004387;28;19926;-63
2022/07/15 11:03:13;;;;;;;;;;;27.40;42.60;;;;;;4999569;28;20403;-62
2022/07/15 11:05:46;;;;;;;;;;;27.40;43.10;;;;;;5002193;28;20329;-66
2022/07/15 11:08:30;;;;;;;;;;;27.40;42.60;;;;;;4999709;28;20389;-64
2022/07/15 11:10:56;;;;;;;;;;;27.40;42.60;;;;;;4999960;28;20345;-65
2022/07/15 11:13:32;;;;;;;;;;;27.40;42.60;;;;;;5001130;28;19913;-60
2022/07/15 11:15:58;;;;;;;;;;;27.40;42.60;;;;;;5002892;28;19917;-64
2022/07/15 11:18:24;;;;;;;;;;;27.40;42.60;;;;;;5000402;28;19923;-63
2022/07/15 11:20:50;;;;;;;;;;;27.50;42.70;;;;;;5000290;28;19924;-64
2022/07/15 11:23:17;;;;;;;;;;;27.50;42.70;;;;;;4998312;28;19940;-66
2022/07/15 11:25:43;;;;;;;;;;;27.50;42.70;;;;;;5001372;28;20462;-62
2022/07/15 11:28:12;;;;;;;;;;;27.50;42.70;;;;;;5002883;28;20000;-64
2022/07/15 11:30:53;;;;;;;;;;;27.50;42.70;;;;;;4999280;28;20054;-64
2022/07/15 11:33:20;;;;;;;;;;;27.50;42.70;;;;;;4999578;28;19940;-64
2022/07/15 11:35:47;;;;;;;;;;;27.50;42.70;;;;;;5000962;28;20298;-60
2022/07/15 11:38:13;;;;;;;;;;;27.60;42.80;;;;;;5000252;28;19913;-62
2022/07/15 11:46:11;;;;;;;;;;;27.60;42.70;;;;;;5014773;28;19920;-62
2022/07/15 11:48:38;;;;;;;;;;;27.60;42.70;;;;;;5016440;28;19917;-62
2022/07/15 11:51:04;;;;;;;;;;;27.60;42.70;;;;;;5015639;28;19913;-63
2022/07/15 11:53:33;;;;;;;;;;;27.60;42.70;;;;;;5015088;28;19960;-61
2022/07/15 11:55:59;;;;;;;;;;;27.70;42.80;;;;;;5015114;28;19924;-64
2022/07/15 11:58:25;;;;;;;;;;;27.70;42.80;;;;;;5020259;28;19909;-63
2022/07/15 12:00:51;;;;;;;;;;;27.70;42.80;;;;;;5017846;28;19975;-63
2022/07/15 12:03:17;;;;;;;;;;;27.70;42.70;;;;;;5021859;28;20678;-65
2022/07/15 12:05:42;;;;;;;;;;;27.70;42.70;;;;;;5022634;28;19921;-64
2022/07/15 12:08:08;;;;;;;;;;;27.70;42.70;;;;;;5018983;28;19936;-63
2022/07/15 12:10:34;;;;;;;;;;;27.70;42.70;;;;;;5023155;28;19913;-62
2022/07/15 12:13:01;;;;;;;;;;;27.70;42.70;;;;;;5013758;28;20403;-62
2022/07/15 12:15:28;;;;;;;;;;;27.70;42.70;;;;;;5020214;28;19917;-64
2022/07/15 12:17:55;;;;;;;;;;;27.70;43.20;;;;;;5014237;28;19909;-64
2022/07/15 12:20:21;;;;;;;;;;;27.70;42.70;;;;;;5014373;28;20454;-59
2022/07/15 12:23:05;;;;;;;;;;;27.80;42.80;;;;;;5018053;28;20294;-66
2022/07/15 12:25:31;;;;;;;;;;;27.70;43.30;;;;;;5019098;28;19917;-60
2022/07/15 12:27:56;;;;;;;;;;;27.80;42.80;;;;;;5018302;28;20031;-60
2022/07/15 12:30:29;;;;;;;;;;;27.80;42.80;;;;;;5003016;28;19936;-63
2022/07/15 12:33:11;;;;;;;;;;;27.80;42.80;;;;;;5002837;28;19959;-62
2022/07/15 12:35:37;;;;;;;;;;;27.80;42.90;;;;;;5005448;28;19913;-63
2022/07/15 12:38:02;;;;;;;;;;;27.80;42.90;;;;;;5010810;28;20341;-63
2022/07/15 12:40:28;;;;;;;;;;;27.80;42.80;;;;;;5018709;28;19944;-61
2022/07/15 12:42:54;;;;;;;;;;;27.80;42.80;;;;;;5012939;28;19912;-66
2022/07/15 12:45:24;;;;;;;;;;;27.90;42.90;;;;;;5005962;28;19918;-62
2022/07/15 12:48:00;;;;;;;;;;;27.90;43.10;;;;;;5009173;28;19910;-64
2022/07/15 12:50:26;;;;;;;;;;;27.90;43.10;;;;;;5010510;28;19963;-64
2022/07/15 12:52:55;;;;;;;;;;;27.90;43.00;;;;;;5000923;28;19917;-65
2022/07/15 12:55:22;;;;;;;;;;;27.90;43.10;;;;;;5005153;28;19929;-62
2022/07/15 12:57:48;;;;;;;;;;;28.00;43.10;;;;;;5009821;28;20133;-64
2022/07/15 13:00:15;;;;;;;;;;;28.00;43.10;;;;;;5020809;28;19923;-64
2022/07/15 13:03:00;;;;;;;;;;;28.00;43.60;;;;;;5003156;28;19910;-64
2022/07/15 13:05:27;;;;;;;;;;;28.00;43.10;;;;;;5004239;28;19918;-64
2022/07/15 13:07:52;;;;;;;;;;;28.00;43.20;;;;;;5005874;28;19924;-64
2022/07/15 13:10:18;;;;;;;;;;;28.00;43.20;;;;;;5004304;28;19917;-64
2022/07/15 13:12:43;;;;;;;;;;;28.00;43.30;;;;;;5010604;28;20032;-64
2022/07/15 13:15:09;;;;;;;;;;;28.00;43.20;;;;;;5002479;28;20369;-64
2022/07/15 13:17:35;;;;;;;;;;;28.10;43.20;;;;;;5002538;28;19913;-61
2022/07/15 13:20:05;;;;;;;;;;;28.10;43.20;;;;;;5005601;28;19916;-66
2022/07/15 13:22:31;;;;;;;;;;;28.10;43.20;;;;;;5012264;28;19948;-59
2022/07/15 13:24:57;;;;;;;;;;;28.10;43.20;;;;;;5009186;28;19936;-64
2022/07/15 13:27:23;;;;;;;;;;;28.10;43.30;;;;;;5009871;28;19917;-62
2022/07/15 13:29:49;;;;;;;;;;;28.10;43.30;;;;;;5006393;28;20245;-65
2022/07/15 13:32:14;;;;;;;;;;;28.10;43.30;;;;;;4996607;28;20821;-64
2022/07/15 13:34:40;;;;;;;;;;;28.20;43.40;;;;;;4996601;28;20881;-63
2022/07/15 13:37:05;;;;;;;;;;;28.20;43.30;;;;;;4995534;28;20396;-64
2022/07/15 13:39:30;;;;;;;;;;;28.20;43.30;;;;;;4994169;28;19913;-62
2022/07/15 13:41:56;;;;;;;;;;;28.20;43.30;;;;;;4993238;28;19917;-64
2022/07/15 13:44:21;;;;;;;;;;;28.20;43.30;;;;;;4994193;28;19968;-66
2022/07/15 13:46:47;;;;;;;;;;;28.10;43.20;;;;;;4997727;28;20100;-64
2022/07/15 13:49:12;;;;;;;;;;;28.10;43.10;;;;;;4992596;28;20012;-64
2022/07/15 13:51:40;;;;;;;;;;;28.10;43.10;;;;;;5007342;28;20388;-64
2022/07/15 13:54:06;;;;;;;;;;;28.10;43.10;;;;;;4998711;28;19960;-65
2022/07/15 13:56:32;;;;;;;;;;;28.20;43.20;;;;;;4997133;28;20704;-65
2022/07/15 13:58:58;;;;;;;;;;;28.20;43.10;;;;;;4994669;28;19952;-63
2022/07/15 14:01:25;;;;;;;;;;;28.20;43.00;;;;;;4996135;28;20248;-64
2022/07/15 14:03:50;;;;;;;;;;;28.20;43.00;;;;;;4993715;28;19921;-64
2022/07/15 14:06:15;;;;;;;;;;;28.20;43.00;;;;;;4996674;28;19917;-64
2022/07/15 14:08:41;;;;;;;;;;;28.20;43.00;;;;;;4993605;28;20021;-65
2022/07/15 14:11:06;;;;;;;;;;;28.20;43.00;;;;;;4993971;28;20475;-64
2022/07/15 14:13:32;;;;;;;;;;;28.20;43.50;;;;;;4994416;28;19956;-63
2022/07/15 14:15:57;;;;;;;;;;;28.20;43.00;;;;;;4996270;28;20385;-65
2022/07/15 14:18:42;;;;;;;;;;;28.20;43.00;;;;;;4993394;28;19909;-64
2022/07/15 14:21:08;;;;;;;;;;;28.20;43.10;;;;;;4992465;28;19929;-64
2022/07/15 14:23:34;;;;;;;;;;;28.10;43.00;;;;;;4991185;28;20314;-62
2022/07/15 14:25:59;;;;;;;;;;;28.10;43.10;;;;;;4996421;28;19948;-62
2022/07/15 14:28:25;;;;;;;;;;;28.10;43.10;;;;;;4994555;28;20004;-63